FDX945 KMEM-KSLC
Flight info
| Callsign | FDX945 |
|---|---|
| Flight time | N/A |
| Altitude | 36000 |
| Route | CHLDR5 ANSWA LIT IRW/N0475F380 J98 MMB PUB CKW CARTR1 |
| Aircraft | B763/H-SDE3FGHIM3RWXY/LB1 |
Departure
| Time | 2026-05-05 22:12 |
|---|---|
| Airport | Memphis International Airport (KMEM) |
Arrival
| Time | N/A |
|---|---|
| Airport | Salt Lake City International Airport (KSLC) |
| Time | Latitude | Longitude | Altitude | Speed | Heading |
|---|---|---|---|---|---|
| 2026-05-05 21:38 | 35.06419 | -89.98023 | 254 ft | 0 kts | 2° |
| 2026-05-05 22:04 | 35.06405 | -89.98023 | 254 ft | 2 kts | 2° |
| 2026-05-05 22:04 | 35.06390 | -89.98024 | 254 ft | 2 kts | 2° |
| 2026-05-05 22:04 | 35.06375 | -89.98025 | 254 ft | 2 kts | 20° |
| 2026-05-05 22:05 | 35.06363 | -89.98035 | 254 ft | 2 kts | 49° |
| 2026-05-05 22:05 | 35.06355 | -89.98050 | 254 ft | 2 kts | 75° |
| 2026-05-05 22:05 | 35.06354 | -89.98060 | 254 ft | 0 kts | 92° |
| 2026-05-05 22:05 | 35.06354 | -89.98065 | 254 ft | 0 kts | 92° |
| 2026-05-05 22:07 | 35.06354 | -89.98064 | 254 ft | 0 kts | 92° |
| 2026-05-05 22:07 | 35.06353 | -89.98035 | 254 ft | 6 kts | 92° |
| 2026-05-05 22:07 | 35.06352 | -89.97955 | 255 ft | 10 kts | 91° |
| 2026-05-05 22:07 | 35.06349 | -89.97889 | 257 ft | 0 kts | 93° |
| 2026-05-05 22:08 | 35.06347 | -89.97849 | 257 ft | 8 kts | 95° |
| 2026-05-05 22:08 | 35.06306 | -89.97787 | 258 ft | 11 kts | 176° |
| 2026-05-05 22:08 | 35.06212 | -89.97783 | 259 ft | 15 kts | 179° |
| 2026-05-05 22:09 | 35.06084 | -89.97784 | 259 ft | 19 kts | 179° |
| 2026-05-05 22:09 | 35.05955 | -89.97781 | 262 ft | 17 kts | 179° |
| 2026-05-05 22:09 | 35.05847 | -89.97781 | 264 ft | 13 kts | 180° |
| 2026-05-05 22:09 | 35.05761 | -89.97782 | 266 ft | 12 kts | 180° |
| 2026-05-05 22:10 | 35.05664 | -89.97782 | 268 ft | 15 kts | 180° |
| 2026-05-05 22:10 | 35.05545 | -89.97781 | 270 ft | 18 kts | 180° |
| 2026-05-05 22:10 | 35.05452 | -89.97748 | 273 ft | 10 kts | 117° |
| 2026-05-05 22:10 | 35.05437 | -89.97652 | 273 ft | 12 kts | 114° |
| 2026-05-05 22:11 | 35.05378 | -89.97617 | 275 ft | 7 kts | 180° |
| 2026-05-05 22:11 | 35.05325 | -89.97617 | 277 ft | 14 kts | 180° |
| 2026-05-05 22:11 | 35.05050 | -89.97609 | 283 ft | 63 kts | 179° |
| 2026-05-05 22:11 | 35.04476 | -89.97598 | 296 ft | 101 kts | 179° |
| 2026-05-05 22:12 | 35.03643 | -89.97578 | 316 ft | 134 kts | 179° |
| 2026-05-05 22:12 | 35.02607 | -89.97554 | 362 ft | 161 kts | 179° |
| 2026-05-05 22:12 | 35.01431 | -89.97541 | 595 ft | 171 kts | 181° |
| 2026-05-05 22:12 | 35.00258 | -89.97561 | 1162 ft | 165 kts | 180° |
| 2026-05-05 22:13 | 34.99178 | -89.97734 | 1749 ft | 161 kts | 202° |
| 2026-05-05 22:13 | 34.98177 | -89.98439 | 2192 ft | 168 kts | 207° |
| 2026-05-05 22:13 | 34.97111 | -89.99181 | 2492 ft | 187 kts | 207° |
| 2026-05-05 22:13 | 34.95977 | -89.99985 | 3147 ft | 189 kts | 210° |
| 2026-05-05 22:14 | 34.94871 | -90.00892 | 3692 ft | 198 kts | 226° |
| 2026-05-05 22:14 | 34.94247 | -90.02469 | 3996 ft | 226 kts | 257° |
| 2026-05-05 22:14 | 34.94190 | -90.04403 | 4690 ft | 233 kts | 265° |
| 2026-05-05 22:14 | 34.94199 | -90.06395 | 5416 ft | 236 kts | 265° |
| 2026-05-05 22:15 | 34.94170 | -90.08382 | 6078 ft | 243 kts | 266° |
| 2026-05-05 22:15 | 34.94163 | -90.10480 | 6814 ft | 248 kts | 266° |
| 2026-05-05 22:15 | 34.94059 | -90.12543 | 7577 ft | 249 kts | 262° |
| 2026-05-05 22:15 | 34.93905 | -90.14664 | 8307 ft | 253 kts | 263° |
| 2026-05-05 22:16 | 34.93761 | -90.16782 | 9108 ft | 253 kts | 263° |
| 2026-05-05 22:16 | 34.93616 | -90.18897 | 9800 ft | 256 kts | 264° |
| 2026-05-05 22:16 | 34.93469 | -90.21056 | 10387 ft | 264 kts | 264° |
| 2026-05-05 22:16 | 34.93318 | -90.23373 | 10754 ft | 281 kts | 265° |
| 2026-05-05 22:17 | 34.93183 | -90.25798 | 11173 ft | 296 kts | 265° |
| 2026-05-05 22:17 | 34.93039 | -90.28353 | 11526 ft | 314 kts | 265° |
| 2026-05-05 22:17 | 34.92885 | -90.31086 | 11922 ft | 330 kts | 265° |
| 2026-05-05 22:17 | 34.92722 | -90.33942 | 12311 ft | 346 kts | 266° |
| 2026-05-05 22:18 | 34.92556 | -90.36860 | 13152 ft | 349 kts | 266° |
| 2026-05-05 22:18 | 34.92387 | -90.39809 | 14018 ft | 350 kts | 266° |
| 2026-05-05 22:18 | 34.92218 | -90.42754 | 14664 ft | 356 kts | 266° |
| 2026-05-05 22:18 | 34.92044 | -90.45750 | 15501 ft | 357 kts | 267° |
| 2026-05-05 22:19 | 34.91869 | -90.48780 | 16142 ft | 362 kts | 267° |
| 2026-05-05 22:19 | 34.91691 | -90.51820 | 16893 ft | 364 kts | 267° |
| 2026-05-05 22:19 | 34.91511 | -90.54908 | 17543 ft | 368 kts | 267° |
| 2026-05-05 22:19 | 34.91327 | -90.58020 | 18247 ft | 370 kts | 266° |
| 2026-05-05 22:20 | 34.91142 | -90.61172 | 18841 ft | 375 kts | 267° |
| 2026-05-05 22:20 | 34.90956 | -90.64314 | 19452 ft | 378 kts | 267° |
| 2026-05-05 22:20 | 34.90763 | -90.67526 | 20043 ft | 382 kts | 266° |
| 2026-05-05 22:20 | 34.90571 | -90.70757 | 20581 ft | 387 kts | 266° |
| 2026-05-05 22:21 | 34.90255 | -90.74000 | 21161 ft | 390 kts | 261° |
| 2026-05-05 22:21 | 34.89755 | -90.77246 | 21716 ft | 393 kts | 262° |
| 2026-05-05 22:21 | 34.89269 | -90.80531 | 22240 ft | 397 kts | 261° |
| 2026-05-05 22:21 | 34.88770 | -90.83844 | 22686 ft | 402 kts | 261° |
| 2026-05-05 22:22 | 34.88262 | -90.87180 | 23319 ft | 402 kts | 262° |
| 2026-05-05 22:22 | 34.87751 | -90.90533 | 23928 ft | 403 kts | 262° |
| 2026-05-05 22:22 | 34.87237 | -90.93895 | 24371 ft | 408 kts | 262° |
| 2026-05-05 22:22 | 34.86718 | -90.97280 | 25001 ft | 408 kts | 262° |
| 2026-05-05 22:23 | 34.86199 | -91.00659 | 25548 ft | 410 kts | 262° |
| 2026-05-05 22:23 | 34.85672 | -91.04078 | 26049 ft | 413 kts | 262° |
| 2026-05-05 22:23 | 34.85146 | -91.07484 | 26639 ft | 413 kts | 262° |
| 2026-05-05 22:23 | 34.84613 | -91.10918 | 27178 ft | 414 kts | 263° |
| 2026-05-05 22:24 | 34.84078 | -91.14380 | 27601 ft | 417 kts | 263° |
| 2026-05-05 22:24 | 34.83546 | -91.17798 | 28226 ft | 415 kts | 262° |
| 2026-05-05 22:24 | 34.83011 | -91.21224 | 28903 ft | 411 kts | 263° |
| 2026-05-05 22:24 | 34.82487 | -91.24583 | 29755 ft | 402 kts | 263° |
| 2026-05-05 22:25 | 34.81967 | -91.27901 | 30441 ft | 397 kts | 263° |
| 2026-05-05 22:25 | 34.81456 | -91.31159 | 31288 ft | 387 kts | 263° |
| 2026-05-05 22:25 | 34.80956 | -91.34351 | 31770 ft | 386 kts | 263° |
| 2026-05-05 22:25 | 34.80456 | -91.37530 | 32298 ft | 382 kts | 263° |
| 2026-05-05 22:26 | 34.79958 | -91.40688 | 32946 ft | 376 kts | 264° |
| 2026-05-05 22:26 | 34.79472 | -91.43771 | 33465 ft | 373 kts | 264° |
| 2026-05-05 22:26 | 34.78989 | -91.46842 | 33945 ft | 370 kts | 264° |
| 2026-05-05 22:26 | 34.78502 | -91.49915 | 34503 ft | 366 kts | 264° |
| 2026-05-05 22:27 | 34.78027 | -91.52917 | 34798 ft | 367 kts | 264° |
| 2026-05-05 22:27 | 34.77543 | -91.55965 | 35218 ft | 365 kts | 264° |
| 2026-05-05 22:27 | 34.77063 | -91.58990 | 35516 ft | 365 kts | 264° |
| 2026-05-05 22:27 | 34.76590 | -91.61960 | 35800 ft | 360 kts | 264° |
| 2026-05-05 22:28 | 34.76109 | -91.64970 | 35715 ft | 357 kts | 264° |
| 2026-05-05 22:28 | 34.75169 | -91.70864 | 35762 ft | 360 kts | 263° |
| 2026-05-05 22:29 | 34.74403 | -91.76868 | 35764 ft | 356 kts | 273° |
| 2026-05-05 22:29 | 34.75146 | -91.82744 | 35758 ft | 354 kts | 281° |
| 2026-05-05 22:30 | 34.76179 | -91.88579 | 35762 ft | 355 kts | 281° |
| 2026-05-05 22:30 | 34.77240 | -91.94453 | 35752 ft | 354 kts | 282° |
| 2026-05-05 22:31 | 34.78297 | -92.00266 | 35770 ft | 353 kts | 282° |
| 2026-05-05 22:31 | 34.79355 | -92.06074 | 35768 ft | 354 kts | 281° |
| 2026-05-05 22:32 | 34.80422 | -92.11931 | 35770 ft | 354 kts | 281° |
| 2026-05-05 22:32 | 34.81352 | -92.17788 | 35770 ft | 352 kts | 278° |
| 2026-05-05 22:33 | 34.82073 | -92.23740 | 35766 ft | 353 kts | 278° |
| 2026-05-05 22:33 | 34.82941 | -92.29589 | 35753 ft | 355 kts | 286° |
| 2026-05-05 22:34 | 34.85434 | -92.34854 | 35774 ft | 370 kts | 304° |
| 2026-05-05 22:34 | 34.88918 | -92.39487 | 35765 ft | 368 kts | 302° |
| 2026-05-05 22:35 | 34.92069 | -92.44338 | 35763 ft | 365 kts | 300° |
| 2026-05-05 22:35 | 34.95065 | -92.49304 | 35745 ft | 364 kts | 298° |
| 2026-05-05 22:36 | 34.97990 | -92.54333 | 35749 ft | 362 kts | 298° |
| 2026-05-05 22:36 | 35.00877 | -92.59397 | 35767 ft | 367 kts | 297° |
| 2026-05-05 22:36 | 35.02314 | -92.61938 | 36117 ft | 365 kts | 298° |
| 2026-05-05 22:37 | 35.03756 | -92.64497 | 36448 ft | 364 kts | 297° |
| 2026-05-05 22:37 | 35.05178 | -92.67027 | 36692 ft | 364 kts | 297° |
| 2026-05-05 22:37 | 35.06614 | -92.69586 | 37059 ft | 363 kts | 297° |
| 2026-05-05 22:37 | 35.08032 | -92.72118 | 37363 ft | 363 kts | 297° |
| 2026-05-05 22:38 | 35.09449 | -92.74651 | 37537 ft | 365 kts | 297° |
| 2026-05-05 22:38 | 35.10881 | -92.77215 | 37825 ft | 357 kts | 297° |
| 2026-05-05 22:38 | 35.12281 | -92.79720 | 37692 ft | 354 kts | 297° |
| 2026-05-05 22:39 | 35.15026 | -92.84653 | 37735 ft | 354 kts | 296° |
| 2026-05-05 22:39 | 35.17810 | -92.89661 | 37740 ft | 357 kts | 296° |
| 2026-05-05 22:40 | 35.20603 | -92.94689 | 37745 ft | 360 kts | 296° |
| 2026-05-05 22:40 | 35.23405 | -92.99740 | 37752 ft | 360 kts | 296° |
| 2026-05-05 22:41 | 35.26218 | -93.04821 | 37758 ft | 361 kts | 296° |
| 2026-05-05 22:41 | 35.29021 | -93.09888 | 37756 ft | 361 kts | 296° |
| 2026-05-05 22:42 | 35.31829 | -93.14973 | 37753 ft | 360 kts | 296° |
| 2026-05-05 22:42 | 35.34636 | -93.20063 | 37742 ft | 362 kts | 296° |
| 2026-05-05 22:43 | 35.37455 | -93.25182 | 37733 ft | 362 kts | 296° |
| 2026-05-05 22:43 | 35.40258 | -93.30282 | 37732 ft | 360 kts | 296° |
| 2026-05-05 22:44 | 35.43040 | -93.35351 | 37729 ft | 361 kts | 296° |
| 2026-05-05 22:44 | 35.45854 | -93.40482 | 37726 ft | 362 kts | 295° |
| 2026-05-05 22:45 | 35.48661 | -93.45615 | 37725 ft | 361 kts | 296° |
| 2026-05-05 22:45 | 35.51452 | -93.50718 | 37720 ft | 361 kts | 295° |
| 2026-05-05 22:46 | 35.54250 | -93.55844 | 37726 ft | 361 kts | 295° |
| 2026-05-05 22:46 | 35.57053 | -93.60989 | 37723 ft | 362 kts | 295° |
| 2026-05-05 22:47 | 35.59834 | -93.66100 | 37742 ft | 361 kts | 295° |
| 2026-05-05 22:47 | 35.62629 | -93.71244 | 37744 ft | 362 kts | 295° |
| 2026-05-05 22:48 | 35.65420 | -93.76389 | 37757 ft | 363 kts | 295° |
| 2026-05-05 22:48 | 35.68206 | -93.81529 | 37760 ft | 362 kts | 295° |
| 2026-05-05 22:49 | 35.70998 | -93.86694 | 37760 ft | 362 kts | 294° |
| 2026-05-05 22:49 | 35.73790 | -93.91863 | 37762 ft | 362 kts | 295° |
| 2026-05-05 22:50 | 35.76559 | -93.96994 | 37760 ft | 361 kts | 295° |
| 2026-05-05 22:50 | 35.79327 | -94.02134 | 37759 ft | 362 kts | 295° |
| 2026-05-05 22:51 | 35.82115 | -94.07323 | 37762 ft | 364 kts | 295° |
| 2026-05-05 22:51 | 35.84907 | -94.12521 | 37761 ft | 363 kts | 295° |
| 2026-05-05 22:52 | 35.87668 | -94.17670 | 37766 ft | 361 kts | 295° |
| 2026-05-05 22:52 | 35.90452 | -94.22874 | 37766 ft | 363 kts | 295° |
| 2026-05-05 22:53 | 35.93231 | -94.28074 | 37773 ft | 364 kts | 295° |
| 2026-05-05 22:53 | 35.95996 | -94.33251 | 37773 ft | 363 kts | 294° |
| 2026-05-05 22:54 | 35.98780 | -94.38477 | 37773 ft | 364 kts | 294° |
| 2026-05-05 22:54 | 36.01561 | -94.43707 | 37778 ft | 365 kts | 295° |
| 2026-05-05 22:55 | 36.04331 | -94.48917 | 37767 ft | 362 kts | 295° |
| 2026-05-05 22:55 | 36.07086 | -94.54111 | 37777 ft | 362 kts | 295° |
| 2026-05-05 22:56 | 36.09845 | -94.59321 | 37785 ft | 362 kts | 295° |
| 2026-05-05 22:56 | 36.12593 | -94.64517 | 37766 ft | 363 kts | 295° |
| 2026-05-05 22:57 | 36.15355 | -94.69747 | 37781 ft | 364 kts | 294° |
| 2026-05-05 22:57 | 36.18126 | -94.75003 | 37779 ft | 363 kts | 294° |
| 2026-05-05 22:58 | 36.20855 | -94.80183 | 37769 ft | 361 kts | 293° |
| 2026-05-05 22:58 | 36.23602 | -94.85413 | 37774 ft | 362 kts | 293° |
| 2026-05-05 22:59 | 36.26347 | -94.90645 | 37782 ft | 364 kts | 294° |
| 2026-05-05 22:59 | 36.29107 | -94.95911 | 37792 ft | 363 kts | 294° |
| 2026-05-05 23:00 | 36.33206 | -95.03744 | 37787 ft | 362 kts | 293° |
| 2026-05-05 23:00 | 36.35952 | -95.09010 | 37809 ft | 362 kts | 294° |
| 2026-05-05 23:01 | 36.38686 | -95.14253 | 37806 ft | 362 kts | 293° |
| 2026-05-05 23:01 | 36.41412 | -95.19494 | 37800 ft | 364 kts | 294° |
| 2026-05-05 23:02 | 36.44141 | -95.24745 | 37807 ft | 363 kts | 294° |
| 2026-05-05 23:02 | 36.46889 | -95.30042 | 37822 ft | 364 kts | 293° |
| 2026-05-05 23:03 | 36.49603 | -95.35280 | 37803 ft | 362 kts | 294° |
| 2026-05-05 23:03 | 36.52324 | -95.40538 | 37810 ft | 362 kts | 292° |
| 2026-05-05 23:04 | 36.55045 | -95.45812 | 37808 ft | 364 kts | 292° |
| 2026-05-05 23:04 | 36.57777 | -95.51112 | 37818 ft | 363 kts | 293° |
| 2026-05-05 23:05 | 36.60497 | -95.56395 | 37817 ft | 364 kts | 293° |
| 2026-05-05 23:05 | 36.63205 | -95.61661 | 37813 ft | 364 kts | 292° |
| 2026-05-05 23:06 | 36.65942 | -95.66998 | 37850 ft | 365 kts | 292° |
| 2026-05-05 23:06 | 36.68664 | -95.72308 | 37850 ft | 365 kts | 292° |
| 2026-05-05 23:07 | 36.71381 | -95.77618 | 37846 ft | 362 kts | 292° |
| 2026-05-05 23:07 | 36.74081 | -95.82909 | 37854 ft | 364 kts | 292° |
| 2026-05-05 23:08 | 36.76802 | -95.88240 | 37861 ft | 365 kts | 292° |
| 2026-05-05 23:08 | 36.79518 | -95.93578 | 37876 ft | 366 kts | 292° |
| 2026-05-05 23:09 | 36.82219 | -95.98888 | 37874 ft | 362 kts | 292° |
| 2026-05-05 23:09 | 36.84915 | -96.04203 | 37879 ft | 364 kts | 292° |
| 2026-05-05 23:10 | 36.87627 | -96.09557 | 37863 ft | 366 kts | 292° |
| 2026-05-05 23:10 | 36.90344 | -96.14923 | 37865 ft | 365 kts | 292° |
| 2026-05-05 23:11 | 36.93044 | -96.20270 | 37862 ft | 367 kts | 291° |
| 2026-05-05 23:11 | 36.95754 | -96.25645 | 37861 ft | 366 kts | 292° |
| 2026-05-05 23:12 | 36.98456 | -96.31012 | 37876 ft | 365 kts | 292° |
| 2026-05-05 23:12 | 37.01165 | -96.36402 | 37870 ft | 367 kts | 292° |
| 2026-05-05 23:13 | 37.03875 | -96.41804 | 37865 ft | 368 kts | 292° |
| 2026-05-05 23:13 | 37.06575 | -96.47186 | 37882 ft | 367 kts | 291° |
| 2026-05-05 23:14 | 37.09295 | -96.52626 | 37877 ft | 367 kts | 291° |
| 2026-05-05 23:14 | 37.11983 | -96.58008 | 37870 ft | 367 kts | 292° |
| 2026-05-05 23:15 | 37.14698 | -96.63451 | 37873 ft | 368 kts | 291° |
| 2026-05-05 23:15 | 37.17401 | -96.68884 | 37903 ft | 368 kts | 291° |
| 2026-05-05 23:16 | 37.20109 | -96.74331 | 37907 ft | 367 kts | 291° |
| 2026-05-05 23:16 | 37.22799 | -96.79757 | 37912 ft | 369 kts | 291° |
| 2026-05-05 23:17 | 37.25502 | -96.85208 | 37920 ft | 369 kts | 291° |
| 2026-05-05 23:17 | 37.28218 | -96.90701 | 37923 ft | 370 kts | 291° |
| 2026-05-05 23:18 | 37.30937 | -96.96208 | 37919 ft | 371 kts | 291° |
| 2026-05-05 23:18 | 37.33643 | -97.01698 | 37911 ft | 371 kts | 290° |
| 2026-05-05 23:19 | 37.36353 | -97.07203 | 37915 ft | 370 kts | 291° |
| 2026-05-05 23:19 | 37.39057 | -97.12710 | 37915 ft | 373 kts | 290° |
| 2026-05-05 23:20 | 37.41778 | -97.18255 | 37917 ft | 373 kts | 290° |
| 2026-05-05 23:20 | 37.44481 | -97.23774 | 37922 ft | 371 kts | 290° |
| 2026-05-05 23:21 | 37.47188 | -97.29316 | 37928 ft | 372 kts | 291° |
| 2026-05-05 23:21 | 37.49886 | -97.34840 | 37928 ft | 372 kts | 291° |
| 2026-05-05 23:22 | 37.52599 | -97.40411 | 37936 ft | 373 kts | 291° |
| 2026-05-05 23:22 | 37.55289 | -97.45940 | 37932 ft | 373 kts | 290° |
| 2026-05-05 23:23 | 37.57996 | -97.51515 | 37925 ft | 372 kts | 290° |
| 2026-05-05 23:23 | 37.60690 | -97.57074 | 37923 ft | 373 kts | 291° |
| 2026-05-05 23:24 | 37.63394 | -97.62663 | 37918 ft | 373 kts | 291° |
| 2026-05-05 23:24 | 37.66083 | -97.68230 | 37947 ft | 372 kts | 290° |
| 2026-05-05 23:25 | 37.68754 | -97.73766 | 37936 ft | 371 kts | 290° |
| 2026-05-05 23:25 | 37.71431 | -97.79328 | 37944 ft | 373 kts | 290° |
| 2026-05-05 23:26 | 37.74119 | -97.84920 | 37929 ft | 373 kts | 290° |
| 2026-05-05 23:26 | 37.76809 | -97.90527 | 37928 ft | 373 kts | 290° |
| 2026-05-05 23:27 | 37.79497 | -97.96140 | 37936 ft | 375 kts | 290° |
| 2026-05-05 23:27 | 37.82185 | -98.01759 | 37934 ft | 373 kts | 290° |
| 2026-05-05 23:28 | 37.84861 | -98.07369 | 37941 ft | 375 kts | 290° |
| 2026-05-05 23:28 | 37.87552 | -98.13013 | 37940 ft | 374 kts | 290° |
| 2026-05-05 23:29 | 37.90210 | -98.18599 | 37936 ft | 373 kts | 289° |
| 2026-05-05 23:29 | 37.92886 | -98.24239 | 37928 ft | 374 kts | 290° |
| 2026-05-05 23:30 | 37.95112 | -98.28934 | 37937 ft | 374 kts | 289° |
| 2026-05-05 23:30 | 37.98226 | -98.35510 | 37927 ft | 375 kts | 289° |
| 2026-05-05 23:31 | 38.00898 | -98.41170 | 37934 ft | 377 kts | 290° |
| 2026-05-05 23:31 | 38.03582 | -98.46855 | 37933 ft | 374 kts | 290° |
| 2026-05-05 23:32 | 38.06246 | -98.52519 | 37932 ft | 375 kts | 290° |
| 2026-05-05 23:32 | 38.08903 | -98.58173 | 37932 ft | 376 kts | 290° |
| 2026-05-05 23:33 | 38.11581 | -98.63879 | 37919 ft | 375 kts | 289° |
| 2026-05-05 23:33 | 38.14238 | -98.69557 | 37940 ft | 376 kts | 289° |
| 2026-05-05 23:34 | 38.16902 | -98.75255 | 37948 ft | 376 kts | 289° |
| 2026-05-05 23:34 | 38.19567 | -98.80964 | 37966 ft | 375 kts | 289° |
| 2026-05-05 23:35 | 38.22214 | -98.86647 | 37978 ft | 376 kts | 289° |
| 2026-05-05 23:35 | 38.24887 | -98.92397 | 37975 ft | 377 kts | 289° |
| 2026-05-05 23:36 | 38.27549 | -98.98130 | 37973 ft | 377 kts | 289° |
| 2026-05-05 23:36 | 38.30197 | -99.03848 | 37967 ft | 378 kts | 289° |
| 2026-05-05 23:37 | 38.32583 | -99.09004 | 37968 ft | 378 kts | 289° |
| 2026-05-05 23:37 | 38.32790 | -99.09466 | 37838 ft | 377 kts | 299° |
| 2026-05-05 23:37 | 38.34086 | -99.12344 | 37870 ft | 372 kts | 297° |
| 2026-05-05 23:38 | 38.36666 | -99.17883 | 37842 ft | 356 kts | 296° |
| 2026-05-05 23:38 | 38.39160 | -99.23270 | 37881 ft | 354 kts | 294° |
| 2026-05-05 23:39 | 38.41647 | -99.28657 | 37945 ft | 357 kts | 290° |
| 2026-05-05 23:39 | 38.44161 | -99.34140 | 37987 ft | 359 kts | 287° |
| 2026-05-05 23:40 | 38.46684 | -99.39658 | 37978 ft | 362 kts | 288° |
| 2026-05-05 23:40 | 38.49231 | -99.45231 | 37980 ft | 365 kts | 288° |
| 2026-05-05 23:41 | 38.51779 | -99.50816 | 37983 ft | 368 kts | 288° |
| 2026-05-05 23:41 | 38.54375 | -99.56511 | 37984 ft | 371 kts | 288° |
| 2026-05-05 23:42 | 38.56970 | -99.62216 | 37973 ft | 374 kts | 288° |
| 2026-05-05 23:42 | 38.59582 | -99.67966 | 38005 ft | 376 kts | 288° |
| 2026-05-05 23:43 | 38.62191 | -99.73717 | 37989 ft | 376 kts | 288° |
| 2026-05-05 23:43 | 38.64813 | -99.79511 | 37989 ft | 377 kts | 287° |
| 2026-05-05 23:44 | 38.67427 | -99.85299 | 37990 ft | 379 kts | 287° |
| 2026-05-05 23:44 | 38.70061 | -99.91139 | 37978 ft | 379 kts | 288° |
| 2026-05-05 23:45 | 38.72690 | -99.96979 | 37990 ft | 378 kts | 288° |
| 2026-05-05 23:45 | 38.75298 | -100.02786 | 37989 ft | 378 kts | 288° |
| 2026-05-05 23:46 | 38.77920 | -100.08634 | 37988 ft | 378 kts | 288° |
| 2026-05-05 23:46 | 38.80533 | -100.14471 | 37996 ft | 378 kts | 287° |
| 2026-05-05 23:47 | 38.83148 | -100.20327 | 37996 ft | 380 kts | 288° |
| 2026-05-05 23:47 | 38.85770 | -100.26205 | 37981 ft | 380 kts | 288° |
| 2026-05-05 23:48 | 38.88380 | -100.32072 | 37986 ft | 382 kts | 288° |
| 2026-05-05 23:48 | 38.91008 | -100.37987 | 37988 ft | 381 kts | 288° |
| 2026-05-05 23:49 | 38.93619 | -100.43876 | 37985 ft | 382 kts | 287° |
| 2026-05-05 23:49 | 38.96237 | -100.49791 | 37980 ft | 382 kts | 288° |
| 2026-05-05 23:50 | 38.98857 | -100.55725 | 37971 ft | 384 kts | 288° |
| 2026-05-05 23:50 | 39.01492 | -100.61697 | 37978 ft | 383 kts | 288° |
| 2026-05-05 23:51 | 39.04105 | -100.67638 | 38021 ft | 383 kts | 287° |
| 2026-05-05 23:51 | 39.06720 | -100.73588 | 38017 ft | 383 kts | 288° |
| 2026-05-05 23:52 | 39.09345 | -100.79578 | 38024 ft | 384 kts | 288° |
| 2026-05-05 23:52 | 39.11962 | -100.85560 | 38000 ft | 387 kts | 288° |
| 2026-05-05 23:53 | 39.14604 | -100.91611 | 37994 ft | 387 kts | 288° |
| 2026-05-05 23:53 | 39.17222 | -100.97613 | 37986 ft | 386 kts | 288° |
| 2026-05-05 23:54 | 39.19839 | -101.03627 | 37961 ft | 386 kts | 288° |
| 2026-05-05 23:54 | 39.22465 | -101.09676 | 37956 ft | 387 kts | 288° |
| 2026-05-05 23:55 | 39.25081 | -101.15713 | 37965 ft | 387 kts | 289° |
| 2026-05-05 23:55 | 39.27690 | -101.21743 | 37966 ft | 390 kts | 288° |
| 2026-05-05 23:56 | 39.30313 | -101.27822 | 37940 ft | 389 kts | 289° |
| 2026-05-05 23:56 | 39.32938 | -101.33914 | 37942 ft | 389 kts | 289° |
| 2026-05-05 23:57 | 39.35566 | -101.40027 | 37955 ft | 389 kts | 289° |
| 2026-05-05 23:57 | 39.38183 | -101.46121 | 37955 ft | 388 kts | 289° |
| 2026-05-05 23:58 | 39.40793 | -101.52216 | 37952 ft | 389 kts | 289° |
| 2026-05-05 23:58 | 39.43395 | -101.58305 | 37963 ft | 390 kts | 289° |
| 2026-05-05 23:59 | 39.46021 | -101.64458 | 37949 ft | 389 kts | 289° |
| 2026-05-05 23:59 | 39.48619 | -101.70561 | 37960 ft | 390 kts | 289° |
| 2026-05-06 00:00 | 39.51240 | -101.76730 | 37969 ft | 390 kts | 289° |
| 2026-05-06 00:00 | 39.53856 | -101.82898 | 37979 ft | 392 kts | 288° |
| 2026-05-06 00:01 | 39.56467 | -101.89066 | 37969 ft | 391 kts | 289° |
| 2026-05-06 00:01 | 39.59066 | -101.95217 | 37978 ft | 391 kts | 289° |
| 2026-05-06 00:02 | 39.61665 | -102.01382 | 37963 ft | 392 kts | 289° |
| 2026-05-06 00:02 | 39.64273 | -102.07584 | 37973 ft | 391 kts | 289° |
| 2026-05-06 00:03 | 39.66876 | -102.13783 | 37984 ft | 393 kts | 289° |
| 2026-05-06 00:03 | 39.69482 | -102.19998 | 37976 ft | 393 kts | 289° |
| 2026-05-06 00:04 | 39.72101 | -102.26266 | 37982 ft | 395 kts | 289° |
| 2026-05-06 00:04 | 39.74714 | -102.32528 | 37975 ft | 397 kts | 289° |
| 2026-05-06 00:05 | 39.78654 | -102.41995 | 37988 ft | 400 kts | 289° |
| 2026-05-06 00:06 | 39.81294 | -102.48355 | 37992 ft | 400 kts | 290° |
| 2026-05-06 00:06 | 39.83919 | -102.54688 | 37986 ft | 401 kts | 290° |
| 2026-05-06 00:07 | 39.86566 | -102.61092 | 37968 ft | 401 kts | 290° |
| 2026-05-06 00:07 | 39.89191 | -102.67454 | 37993 ft | 403 kts | 289° |
| 2026-05-06 00:08 | 39.91835 | -102.73876 | 37986 ft | 403 kts | 290° |
| 2026-05-06 00:08 | 39.94469 | -102.80286 | 37972 ft | 403 kts | 289° |
| 2026-05-06 00:09 | 39.97120 | -102.86753 | 37973 ft | 406 kts | 289° |
| 2026-05-06 00:09 | 39.99765 | -102.93219 | 37975 ft | 407 kts | 290° |
| 2026-05-06 00:10 | 40.02412 | -102.99705 | 37985 ft | 405 kts | 290° |
| 2026-05-06 00:10 | 40.05054 | -103.06188 | 37993 ft | 406 kts | 290° |
| 2026-05-06 00:11 | 40.07706 | -103.12713 | 37991 ft | 408 kts | 290° |
| 2026-05-06 00:11 | 40.10357 | -103.19251 | 37996 ft | 409 kts | 290° |
| 2026-05-06 00:12 | 40.13010 | -103.25804 | 37985 ft | 407 kts | 290° |
| 2026-05-06 00:12 | 40.15640 | -103.32317 | 37983 ft | 410 kts | 290° |
| 2026-05-06 00:13 | 40.18307 | -103.38938 | 37982 ft | 410 kts | 291° |
| 2026-05-06 00:13 | 40.20934 | -103.45469 | 37978 ft | 409 kts | 291° |
| 2026-05-06 00:14 | 40.23583 | -103.52073 | 37978 ft | 412 kts | 291° |
| 2026-05-06 00:14 | 40.26238 | -103.58707 | 37980 ft | 412 kts | 291° |
| 2026-05-06 00:15 | 40.28884 | -103.65331 | 37977 ft | 412 kts | 291° |
| 2026-05-06 00:15 | 40.31542 | -103.71999 | 37984 ft | 413 kts | 291° |
| 2026-05-06 00:16 | 40.34197 | -103.78677 | 37986 ft | 415 kts | 291° |
| 2026-05-06 00:16 | 40.36841 | -103.85340 | 37986 ft | 413 kts | 291° |
| 2026-05-06 00:17 | 40.39475 | -103.91992 | 37989 ft | 415 kts | 291° |
| 2026-05-06 00:17 | 40.42125 | -103.98704 | 37984 ft | 417 kts | 291° |
| 2026-05-06 00:18 | 40.44783 | -104.05446 | 37980 ft | 416 kts | 291° |
| 2026-05-06 00:18 | 40.47438 | -104.12197 | 37980 ft | 415 kts | 291° |
| 2026-05-06 00:19 | 40.50079 | -104.18932 | 37976 ft | 417 kts | 292° |
| 2026-05-06 00:19 | 40.52733 | -104.25708 | 37978 ft | 418 kts | 292° |
| 2026-05-06 00:20 | 40.55383 | -104.32495 | 37983 ft | 419 kts | 292° |
| 2026-05-06 00:20 | 40.58018 | -104.39256 | 37987 ft | 418 kts | 292° |
| 2026-05-06 00:21 | 40.60663 | -104.46062 | 37984 ft | 419 kts | 292° |
| 2026-05-06 00:21 | 40.63300 | -104.52860 | 37982 ft | 420 kts | 292° |
| 2026-05-06 00:22 | 40.65936 | -104.59673 | 37978 ft | 421 kts | 292° |
| 2026-05-06 00:22 | 40.68579 | -104.66516 | 37990 ft | 420 kts | 292° |
| 2026-05-06 00:23 | 40.71223 | -104.73384 | 37986 ft | 421 kts | 292° |
| 2026-05-06 00:23 | 40.73875 | -104.80285 | 37999 ft | 422 kts | 292° |
| 2026-05-06 00:24 | 40.76523 | -104.87193 | 37983 ft | 423 kts | 292° |
| 2026-05-06 00:24 | 40.79155 | -104.94072 | 37994 ft | 422 kts | 292° |
| 2026-05-06 00:25 | 40.81798 | -105.01000 | 37983 ft | 423 kts | 292° |
| 2026-05-06 00:25 | 40.84435 | -105.07926 | 37951 ft | 423 kts | 292° |
| 2026-05-06 00:26 | 40.87062 | -105.14842 | 37926 ft | 421 kts | 292° |
| 2026-05-06 00:26 | 40.89668 | -105.21722 | 37937 ft | 423 kts | 293° |
| 2026-05-06 00:27 | 40.92297 | -105.28680 | 37920 ft | 424 kts | 293° |
| 2026-05-06 00:27 | 40.94932 | -105.35665 | 37935 ft | 424 kts | 293° |
| 2026-05-06 00:28 | 40.97545 | -105.42610 | 37937 ft | 424 kts | 294° |
| 2026-05-06 00:28 | 41.00162 | -105.49585 | 37945 ft | 423 kts | 293° |
| 2026-05-06 00:29 | 41.02765 | -105.56538 | 37934 ft | 422 kts | 294° |
| 2026-05-06 00:29 | 41.05361 | -105.63488 | 37929 ft | 421 kts | 294° |
| 2026-05-06 00:30 | 41.07947 | -105.70428 | 37955 ft | 423 kts | 293° |
| 2026-05-06 00:30 | 41.10542 | -105.77409 | 37935 ft | 422 kts | 293° |
| 2026-05-06 00:31 | 41.13112 | -105.84342 | 37948 ft | 421 kts | 293° |
| 2026-05-06 00:31 | 41.15683 | -105.91291 | 37942 ft | 422 kts | 293° |
| 2026-05-06 00:32 | 41.18263 | -105.98286 | 37944 ft | 422 kts | 294° |
| 2026-05-06 00:32 | 41.20832 | -106.05263 | 37935 ft | 420 kts | 294° |
| 2026-05-06 00:33 | 41.23398 | -106.12251 | 37907 ft | 422 kts | 294° |